createdAt,value
2023-01-01T00:01:22.339Z,100754.81
2023-01-01T00:03:50.961Z,100761.81
2023-01-01T00:06:17.800Z,100761.81
2023-01-01T00:09:25.517Z,100759.81
2023-01-01T00:12:14.194Z,100778.56
2023-01-01T00:14:43.096Z,100754.41
2023-01-01T00:17:10.374Z,100770.06
2023-01-01T00:19:37.133Z,100768.94
2023-01-01T00:22:27.927Z,100772.06
2023-01-01T00:24:50.524Z,100771.19
2023-01-01T00:27:17.244Z,100778.53
2023-01-01T00:29:43.951Z,100776.53
2023-01-01T00:32:15.374Z,100790.63
2023-01-01T00:34:44.354Z,100775.78
2023-01-01T00:37:11.749Z,100784.22
2023-01-01T00:39:38.465Z,100790.16
2023-01-01T00:42:05.491Z,100781.72
2023-01-01T00:44:32.157Z,100778.09
2023-01-01T00:46:58.900Z,100776.16
2023-01-01T00:49:25.605Z,100776.03
2023-01-01T00:51:52.376Z,100788.13
2023-01-01T00:54:19.056Z,100789.22
2023-01-01T00:56:45.841Z,100786.91
2023-01-01T00:59:12.712Z,100797.09
2023-01-01T01:01:41.281Z,100792.59
2023-01-01T01:04:09.540Z,100791.50
2023-01-01T01:06:36.514Z,100796.59
2023-01-01T01:09:04.722Z,100794.00
2023-01-01T01:11:31.439Z,100802.75
2023-01-01T01:13:58.225Z,100802.75
2023-01-01T01:16:28.253Z,100793.09
2023-01-01T01:18:57.928Z,100797.53
2023-01-01T01:21:25.324Z,100807.22
2023-01-01T01:23:52.868Z,100809.28
2023-01-01T01:26:22.948Z,100811.44
2023-01-01T01:28:50.403Z,100808.22
2023-01-01T01:31:18.733Z,100807.28
2023-01-01T01:33:46.544Z,100816.16
2023-01-01T01:36:14.392Z,100806.41
2023-01-01T01:38:41.497Z,100810.41
2023-01-01T01:41:08.720Z,100817.38
2023-01-01T01:43:35.381Z,100809.72
2023-01-01T01:46:15.032Z,100811.47
2023-01-01T01:48:48.987Z,100808.94
2023-01-01T01:51:23.538Z,100797.47
2023-01-01T01:53:52.833Z,100792.53
2023-01-01T01:56:24.246Z,100789.00
2023-01-01T01:58:51.093Z,100797.13
2023-01-01T02:01:17.901Z,100803.81
2023-01-01T02:04:02.242Z,100798.28
2023-01-01T02:06:30.779Z,100806.63
2023-01-01T02:08:59.446Z,100813.13
2023-01-01T02:11:26.195Z,100816.25
2023-01-01T02:13:53.337Z,100822.41
2023-01-01T02:16:33.434Z,100826.31
2023-01-01T02:19:18.529Z,100817.38
2023-01-01T02:22:03.250Z,100811.38
2023-01-01T02:24:41.503Z,100815.97
2023-01-01T02:27:18.541Z,100813.91
2023-01-01T02:29:53.213Z,100803.06
2023-01-01T02:32:27.450Z,100805.16
2023-01-01T02:35:33.107Z,100798.19
2023-01-01T02:38:11.415Z,100800.19
2023-01-01T02:40:43.218Z,100802.47
2023-01-01T02:43:09.938Z,100802.28
2023-01-01T02:45:36.807Z,100793.09
2023-01-01T02:48:27.879Z,100788.22
2023-01-01T02:50:56.681Z,100780.44
2023-01-01T02:53:36.777Z,100785.28
2023-01-01T02:56:09.014Z,100788.22
2023-01-01T02:58:59.943Z,100771.50
2023-01-01T03:01:40.880Z,100787.84
2023-01-01T03:04:13.178Z,100798.06
2023-01-01T03:06:58.232Z,100787.69
2023-01-01T03:09:32.319Z,100801.09
2023-01-01T03:12:14.161Z,100794.91
2023-01-01T03:15:15.343Z,100801.34
2023-01-01T03:17:58.903Z,100805.31
2023-01-01T03:20:29.088Z,100803.16
2023-01-01T03:22:59.516Z,100797.31
2023-01-01T03:25:29.730Z,100794.31
2023-01-01T03:28:00.167Z,100803.16
2023-01-01T03:30:28.886Z,100799.66
2023-01-01T03:33:01.506Z,100797.09
2023-01-01T03:35:59.518Z,100803.41
2023-01-01T03:38:31.614Z,100788.91
2023-01-01T03:41:41.327Z,100790.91
2023-01-01T03:44:16.137Z,100797.75
2023-01-01T03:46:43.318Z,100795.41
2023-01-01T03:49:11.943Z,100809.38
2023-01-01T03:52:17.197Z,100818.13
2023-01-01T03:54:59.596Z,100834.78
2023-01-01T03:57:37.743Z,100830.28
2023-01-01T04:00:11.386Z,100838.53
2023-01-01T04:02:57.856Z,100836.31
2023-01-01T04:05:25.050Z,100844.50
2023-01-01T04:07:52.911Z,100845.28
2023-01-01T04:10:20.323Z,100859.94
2023-01-01T04:12:52.186Z,100847.31
2023-01-01T04:15:21.830Z,100867.47
2023-01-01T04:17:48.678Z,100854.13
2023-01-01T04:20:16.054Z,100854.28
2023-01-01T04:22:42.772Z,100866.88
2023-01-01T04:25:10.142Z,100865.41
2023-01-01T04:27:37.426Z,100862.19
2023-01-01T04:30:05.771Z,100862.66
2023-01-01T04:32:32.535Z,100863.66
2023-01-01T04:34:59.296Z,100874.84
2023-01-01T04:37:26.409Z,100874.41
2023-01-01T04:39:53.206Z,100882.63
2023-01-01T04:42:23.658Z,100866.16
2023-01-01T04:44:50.429Z,100882.56
2023-01-01T04:47:17.147Z,100884.16
2023-01-01T04:49:43.818Z,100879.25
2023-01-01T04:52:10.526Z,100885.38
2023-01-01T04:54:37.242Z,100887.38
2023-01-01T04:57:04.131Z,100890.66
2023-01-01T04:59:31.265Z,100888.75
2023-01-01T05:01:58.615Z,100879.09
2023-01-01T05:04:25.545Z,100873.41
2023-01-01T05:06:52.281Z,100890.00
2023-01-01T05:09:18.971Z,100887.56
2023-01-01T05:11:45.677Z,100885.78
2023-01-01T05:14:12.504Z,100887.25
2023-01-01T05:16:40.569Z,100880.56
2023-01-01T05:19:08.186Z,100881.00
2023-01-01T05:21:39.805Z,100880.59
2023-01-01T05:24:09.422Z,100881.53
2023-01-01T05:26:40.767Z,100882.88
2023-01-01T05:29:13.690Z,100884.69
2023-01-01T05:31:43.156Z,100896.72
2023-01-01T05:34:10.152Z,100892.47
2023-01-01T05:36:39.239Z,100902.44
2023-01-01T05:39:07.758Z,100886.91
2023-01-01T05:41:36.814Z,100896.09
2023-01-01T05:44:05.267Z,100899.41
2023-01-01T05:46:32.413Z,100904.56
2023-01-01T05:48:59.555Z,100901.53
2023-01-01T05:51:28.714Z,100910.16
2023-01-01T05:53:55.692Z,100909.31
2023-01-01T05:56:22.658Z,100903.81
2023-01-01T05:58:49.579Z,100907.81
2023-01-01T06:01:20.451Z,100907.94
2023-01-01T06:03:50.282Z,100912.69
2023-01-01T06:06:20.212Z,100914.28
2023-01-01T06:08:57.493Z,100920.22
2023-01-01T06:11:25.018Z,100913.31
2023-01-01T06:13:53.306Z,100914.13
2023-01-01T06:16:20.185Z,100918.38
2023-01-01T06:18:46.983Z,100916.41
2023-01-01T06:21:16.788Z,100936.59
2023-01-01T06:23:43.880Z,100944.31
2023-01-01T06:26:13.289Z,100940.06
2023-01-01T06:28:40.323Z,100940.38
2023-01-01T06:31:08.988Z,100931.91
2023-01-01T06:33:35.889Z,100942.81
2023-01-01T06:36:08.283Z,100946.38
2023-01-01T06:38:36.429Z,100947.88
2023-01-01T06:41:05.948Z,100939.41
2023-01-01T06:43:34.436Z,100954.59
2023-01-01T06:46:06.185Z,100947.72
2023-01-01T06:48:35.230Z,100948.25
2023-01-01T06:51:07.039Z,100938.38
2023-01-01T06:53:34.034Z,100955.72
2023-01-01T06:56:00.736Z,100957.97
2023-01-01T06:58:27.728Z,100955.47
2023-01-01T07:00:54.579Z,100953.56
2023-01-01T07:03:21.346Z,100952.78
2023-01-01T07:05:48.103Z,100957.22
2023-01-01T07:08:15.040Z,100953.34
2023-01-01T07:10:41.747Z,100967.06
2023-01-01T07:13:08.620Z,100968.09
2023-01-01T07:15:35.492Z,100972.69
2023-01-01T07:18:02.314Z,100970.94
2023-01-01T07:20:29.121Z,100973.72
2023-01-01T07:22:55.881Z,100985.09
2023-01-01T07:25:23.878Z,100980.69
2023-01-01T07:27:50.610Z,100983.59
2023-01-01T07:30:17.307Z,100988.81
2023-01-01T07:32:44.000Z,100994.81
2023-01-01T07:35:10.722Z,101000.41
2023-01-01T07:37:37.579Z,100997.97
2023-01-01T07:40:04.638Z,101001.91
2023-01-01T07:42:31.367Z,100999.81
2023-01-01T07:44:58.207Z,101009.22
2023-01-01T07:47:26.090Z,101011.09
2023-01-01T07:49:53.258Z,101023.38
2023-01-01T07:52:20.115Z,101036.00
2023-01-01T07:54:46.922Z,101029.06
2023-01-01T07:57:13.613Z,101015.38
2023-01-01T07:59:40.296Z,101019.09
2023-01-01T08:02:07.200Z,101033.28
2023-01-01T08:04:33.944Z,101024.84
2023-01-01T08:07:00.744Z,101020.69
2023-01-01T08:09:27.449Z,101031.88
2023-01-01T08:11:54.317Z,101032.94
2023-01-01T08:14:21.015Z,101030.16
2023-01-01T08:16:47.766Z,101039.22
2023-01-01T08:19:14.421Z,101022.41
2023-01-01T08:21:41.180Z,101030.00
2023-01-01T08:24:07.896Z,101027.78
2023-01-01T08:26:36.282Z,101042.38
2023-01-01T08:29:05.544Z,101051.97
2023-01-01T08:31:32.881Z,101058.53
2023-01-01T08:33:59.665Z,101059.72
2023-01-01T08:36:26.647Z,101055.19
2023-01-01T08:38:53.403Z,101057.41
2023-01-01T08:41:20.099Z,101059.88
2023-01-01T08:43:46.827Z,101075.84
2023-01-01T08:46:13.725Z,101074.03
2023-01-01T08:48:40.485Z,101067.25
2023-01-01T08:51:07.285Z,101069.31
2023-01-01T08:53:34.036Z,101089.19
2023-01-01T08:56:04.584Z,101076.88
2023-01-01T08:58:31.666Z,101085.16
2023-01-01T09:00:59.637Z,101075.75
2023-01-01T09:03:26.798Z,101088.09
2023-01-01T09:05:54.131Z,101084.38
2023-01-01T09:08:22.481Z,101099.25
2023-01-01T09:10:49.214Z,101111.56
2023-01-01T09:13:18.146Z,101109.78
2023-01-01T09:15:46.323Z,101099.97
2023-01-01T09:18:13.623Z,101107.66
2023-01-01T09:20:40.540Z,101126.22
2023-01-01T09:23:08.234Z,101125.34
2023-01-01T09:25:35.694Z,101129.44
2023-01-01T09:28:05.139Z,101142.31
2023-01-01T09:30:32.441Z,101133.81
2023-01-01T09:32:59.418Z,101143.78
2023-01-01T09:35:26.155Z,101138.50
2023-01-01T09:37:52.910Z,101135.72
2023-01-01T09:40:52.420Z,101130.97
2023-01-01T09:43:43.906Z,101129.25
2023-01-01T09:46:11.401Z,101129.97
2023-01-01T09:48:40.566Z,101137.91
2023-01-01T09:51:14.241Z,101131.97
2023-01-01T09:54:02.659Z,101135.53
2023-01-01T09:56:31.173Z,101128.94
2023-01-01T09:59:01.943Z,101133.44
2023-01-01T10:01:55.103Z,101146.56
2023-01-01T10:04:41.383Z,101152.34
2023-01-01T10:07:45.149Z,101155.28
2023-01-01T10:10:29.741Z,101159.25
2023-01-01T10:13:07.331Z,101161.53
2023-01-01T10:15:38.375Z,101152.19
2023-01-01T10:18:09.877Z,101153.53
2023-01-01T10:20:39.585Z,101146.69
2023-01-01T10:23:22.836Z,101162.19
2023-01-01T10:25:49.669Z,101156.16
2023-01-01T10:28:25.388Z,101171.03
2023-01-01T10:30:53.781Z,101170.00
2023-01-01T10:33:20.660Z,101170.00
2023-01-01T10:35:50.391Z,101175.63
2023-01-01T10:38:26.828Z,101167.84
2023-01-01T10:41:03.377Z,101173.31
2023-01-01T10:43:30.329Z,101181.81
2023-01-01T10:45:57.437Z,101177.44
2023-01-01T10:48:26.639Z,101175.00
2023-01-01T10:51:05.967Z,101167.88
2023-01-01T10:53:52.400Z,101179.34
2023-01-01T10:56:21.171Z,101163.56
2023-01-01T10:59:00.974Z,101168.16
2023-01-01T11:01:31.791Z,101170.94
2023-01-01T11:04:22.011Z,101178.47
2023-01-01T11:06:48.961Z,101176.19
2023-01-01T11:09:23.636Z,101197.16
2023-01-01T11:12:11.887Z,101201.66
2023-01-01T11:14:53.402Z,101200.47
2023-01-01T11:17:21.964Z,101198.50
2023-01-01T11:19:52.680Z,101204.59
2023-01-01T11:22:43.941Z,101223.19
2023-01-01T11:25:25.357Z,101221.88
2023-01-01T11:27:54.180Z,101216.41
2023-01-01T11:30:29.292Z,101205.13
2023-01-01T11:33:02.379Z,101201.38
2023-01-01T11:35:33.933Z,101211.31
2023-01-01T11:38:00.943Z,101215.44
2023-01-01T11:40:39.827Z,101193.81
2023-01-01T11:43:07.479Z,101183.25
2023-01-01T11:45:37.846Z,101194.72
2023-01-01T11:48:15.228Z,101195.78
2023-01-01T11:50:53.839Z,101209.84
2023-01-01T11:53:28.237Z,101216.66
2023-01-01T11:56:16.041Z,101212.31
2023-01-01T11:59:12.419Z,101221.75
2023-01-01T12:01:58.758Z,101218.78
2023-01-01T12:04:30.433Z,101211.41
2023-01-01T12:07:05.317Z,101214.69
2023-01-01T12:09:46.472Z,101219.16
2023-01-01T12:12:22.255Z,101218.97
2023-01-01T12:15:01.095Z,101229.06
2023-01-01T12:17:35.297Z,101222.19
2023-01-01T12:20:06.638Z,101228.84
2023-01-01T12:22:33.491Z,101242.47
2023-01-01T12:25:00.562Z,101221.00
2023-01-01T12:27:57.076Z,101230.91
2023-01-01T12:30:42.589Z,101231.69
2023-01-01T12:33:34.428Z,101216.13
2023-01-01T12:36:15.372Z,101216.72
2023-01-01T12:39:01.291Z,101220.41
2023-01-01T12:41:28.015Z,101212.31
2023-01-01T12:44:09.698Z,101217.78
2023-01-01T12:46:55.262Z,101215.00
2023-01-01T12:50:05.123Z,101203.25
2023-01-01T12:53:01.152Z,101200.00
2023-01-01T12:55:47.366Z,101215.88
2023-01-01T12:58:19.095Z,101206.28
2023-01-01T13:00:54.792Z,101204.22
2023-01-01T13:03:24.761Z,101206.28
2023-01-01T13:05:54.678Z,101212.09
2023-01-01T13:08:21.381Z,101210.34
2023-01-01T13:10:51.979Z,101219.16
2023-01-01T13:13:19.154Z,101222.00
2023-01-01T13:15:48.912Z,101214.66
2023-01-01T13:18:15.747Z,101222.25
2023-01-01T13:21:23.128Z,101224.94
2023-01-01T13:23:50.634Z,101228.09
2023-01-01T13:26:21.065Z,101238.41
2023-01-01T13:29:00.074Z,101242.94
2023-01-01T13:31:39.602Z,101248.72
2023-01-01T13:34:32.718Z,101256.78
2023-01-01T13:37:29.277Z,101256.78
2023-01-01T13:40:14.431Z,101265.25
2023-01-01T13:42:44.563Z,101273.34
2023-01-01T13:45:30.352Z,101287.66
2023-01-01T13:48:33.124Z,101289.94
2023-01-01T13:51:39.996Z,101292.72
2023-01-01T13:54:12.728Z,101296.06
2023-01-01T13:57:00.196Z,101298.03
2023-01-01T14:00:13.889Z,101305.69
2023-01-01T14:03:19.618Z,101317.50
2023-01-01T14:06:03.633Z,101319.22
2023-01-01T14:08:35.665Z,101327.94
2023-01-01T14:11:05.064Z,101312.41
2023-01-01T14:13:39.981Z,101315.97
2023-01-01T14:16:10.991Z,101329.56
2023-01-01T14:18:41.847Z,101313.59
2023-01-01T14:21:14.945Z,101312.25
2023-01-01T14:24:03.612Z,101321.84
2023-01-01T14:26:31.267Z,101311.63
2023-01-01T14:29:00.505Z,101318.59
2023-01-01T14:31:30.598Z,101313.66
2023-01-01T14:33:58.867Z,101319.31
2023-01-01T14:36:27.261Z,101327.84
2023-01-01T14:38:56.024Z,101319.22
2023-01-01T14:41:34.430Z,101334.81
2023-01-01T14:44:07.856Z,101334.13
2023-01-01T14:46:40.080Z,101339.34
2023-01-01T14:49:11.724Z,101336.34
2023-01-01T14:51:44.655Z,101337.53
2023-01-01T14:54:17.831Z,101348.22
2023-01-01T14:56:47.062Z,101345.88
2023-01-01T14:59:33.700Z,101346.38
2023-01-01T15:02:24.804Z,101340.41
2023-01-01T15:04:51.733Z,101341.78
2023-01-01T15:07:23.949Z,101347.75
2023-01-01T15:09:52.303Z,101357.06
2023-01-01T15:12:20.425Z,101360.03
2023-01-01T15:14:48.592Z,101364.69
2023-01-01T15:17:17.624Z,101363.53
2023-01-01T15:19:46.473Z,101372.91
2023-01-01T15:22:26.077Z,101375.97
2023-01-01T15:24:52.872Z,101380.75
2023-01-01T15:27:26.018Z,101387.13
2023-01-01T15:29:53.197Z,101389.19
2023-01-01T15:32:25.698Z,101394.22
2023-01-01T15:34:54.151Z,101395.72
2023-01-01T15:37:38.185Z,101394.94
2023-01-01T15:40:24.897Z,101395.31
2023-01-01T15:42:54.564Z,101397.69
2023-01-01T15:45:25.336Z,101414.31
2023-01-01T15:48:13.289Z,101416.16
2023-01-01T15:50:48.980Z,101422.47
2023-01-01T15:53:24.195Z,101424.59
2023-01-01T15:55:59.721Z,101432.81
2023-01-01T15:58:33.374Z,101432.84
2023-01-01T16:01:02.839Z,101419.69
2023-01-01T16:03:31.306Z,101422.84
2023-01-01T16:05:58.210Z,101428.22
2023-01-01T16:08:25.336Z,101438.28
2023-01-01T16:10:52.776Z,101419.25
2023-01-01T16:13:20.157Z,101436.16
2023-01-01T16:15:59.400Z,101421.44
2023-01-01T16:18:32.101Z,101420.06
2023-01-01T16:20:59.750Z,101418.28
2023-01-01T16:23:27.194Z,101422.09
2023-01-01T16:25:54.271Z,101422.50
2023-01-01T16:28:21.122Z,101423.22
2023-01-01T16:30:48.511Z,101427.06
2023-01-01T16:33:17.692Z,101435.91
2023-01-01T16:35:45.333Z,101434.72
2023-01-01T16:38:12.961Z,101433.94
2023-01-01T16:40:40.584Z,101437.88
2023-01-01T16:43:16.626Z,101437.06
2023-01-01T16:45:44.938Z,101434.88
2023-01-01T16:48:12.324Z,101433.91
2023-01-01T16:50:39.793Z,101444.56
2023-01-01T16:53:07.066Z,101447.69
2023-01-01T16:55:34.031Z,101443.03
2023-01-01T16:58:29.499Z,101453.78
2023-01-01T17:00:48.713Z,101457.19
2023-01-01T17:03:16.149Z,101461.13
2023-01-01T17:05:44.612Z,101468.63
2023-01-01T17:08:11.900Z,101467.75
2023-01-01T17:10:38.921Z,101464.13
2023-01-01T17:13:06.447Z,101463.97
2023-01-01T17:15:33.637Z,101462.91
2023-01-01T17:18:00.704Z,101465.78
2023-01-01T17:20:27.755Z,101471.34
2023-01-01T17:22:54.562Z,101466.97
2023-01-01T17:25:21.384Z,101471.06
2023-01-01T17:27:48.434Z,101460.28
2023-01-01T17:30:15.451Z,101465.56
2023-01-01T17:32:42.524Z,101457.63
2023-01-01T17:35:09.755Z,101463.09
2023-01-01T17:37:36.502Z,101459.66
2023-01-01T17:40:03.520Z,101459.53
2023-01-01T17:42:30.254Z,101470.00
2023-01-01T17:44:57.051Z,101471.38
2023-01-01T17:47:29.209Z,101464.91
2023-01-01T17:49:57.774Z,101462.38
2023-01-01T17:52:24.685Z,101456.22
2023-01-01T17:54:52.019Z,101462.75
2023-01-01T17:57:19.239Z,101465.31
2023-01-01T17:59:46.074Z,101457.22
2023-01-01T18:02:14.086Z,101464.31
2023-01-01T18:04:41.612Z,101457.66
2023-01-01T18:07:08.479Z,101454.03
2023-01-01T18:09:38.410Z,101458.34
2023-01-01T18:12:06.299Z,101460.16
2023-01-01T18:14:33.195Z,101460.97
2023-01-01T18:17:00.159Z,101461.97
2023-01-01T18:19:27.928Z,101448.09
2023-01-01T18:21:55.184Z,101462.75
2023-01-01T18:24:22.156Z,101453.63
2023-01-01T18:26:49.003Z,101447.59
2023-01-01T18:29:15.949Z,101451.03
2023-01-01T18:31:43.833Z,101458.31
2023-01-01T18:34:11.195Z,101465.78
2023-01-01T18:36:38.357Z,101465.78
2023-01-01T18:39:29.600Z,101478.22
2023-01-01T18:42:15.776Z,101475.25
2023-01-01T18:44:43.589Z,101470.97
2023-01-01T18:47:16.936Z,101483.31
2023-01-01T18:49:47.933Z,101475.03
2023-01-01T18:52:26.309Z,101474.19
2023-01-01T18:55:27.143Z,101490.06
2023-01-01T18:58:08.786Z,101493.63
2023-01-01T19:00:37.278Z,101491.75
2023-01-01T19:03:12.754Z,101488.63
2023-01-01T19:05:40.954Z,101486.22
2023-01-01T19:08:07.897Z,101491.34
2023-01-01T19:10:38.305Z,101493.91
2023-01-01T19:13:20.347Z,101487.66
2023-01-01T19:15:54.106Z,101491.47
2023-01-01T19:18:22.841Z,101492.72
2023-01-01T19:20:51.253Z,101494.44
2023-01-01T19:23:21.942Z,101485.34
2023-01-01T19:25:50.991Z,101484.44
2023-01-01T19:28:17.709Z,101476.41
2023-01-01T19:30:45.548Z,101479.22
2023-01-01T19:33:13.103Z,101479.03
2023-01-01T19:35:39.916Z,101473.28
2023-01-01T19:38:06.741Z,101472.78
2023-01-01T19:40:33.452Z,101477.78
2023-01-01T19:43:01.819Z,101479.19
2023-01-01T19:45:28.682Z,101478.72
2023-01-01T19:47:55.420Z,101478.19
2023-01-01T19:50:22.161Z,101477.09
2023-01-01T19:52:49.041Z,101468.13
2023-01-01T19:55:15.873Z,101469.31
2023-01-01T19:57:42.687Z,101459.72
2023-01-01T20:00:10.068Z,101451.44
2023-01-01T20:02:47.979Z,101458.13
2023-01-01T20:05:15.626Z,101453.38
2023-01-01T20:07:42.441Z,101445.88
2023-01-01T20:10:09.749Z,101442.19
2023-01-01T20:12:36.815Z,101448.06
2023-01-01T20:15:04.380Z,101438.06
2023-01-01T20:17:31.231Z,101439.16
2023-01-01T20:19:58.591Z,101445.75
2023-01-01T20:22:25.440Z,101442.25
2023-01-01T20:24:52.365Z,101432.25
2023-01-01T20:27:24.410Z,101438.81
2023-01-01T20:29:51.689Z,101434.44
2023-01-01T20:32:19.179Z,101432.44
2023-01-01T20:34:45.959Z,101433.16
2023-01-01T20:37:31.986Z,101422.53
2023-01-01T20:39:58.838Z,101422.22
2023-01-01T20:42:27.671Z,101424.81
2023-01-01T20:44:54.437Z,101416.56
2023-01-01T20:47:21.158Z,101418.72
2023-01-01T20:49:47.882Z,101422.25
2023-01-01T20:52:15.934Z,101425.00
2023-01-01T20:54:42.682Z,101422.81
2023-01-01T20:57:09.451Z,101418.00
2023-01-01T20:59:38.042Z,101427.44
2023-01-01T21:02:09.581Z,101429.56
2023-01-01T21:04:39.382Z,101431.34
2023-01-01T21:07:08.247Z,101433.06
2023-01-01T21:09:35.094Z,101426.13
2023-01-01T21:12:02.301Z,101411.56
2023-01-01T21:14:29.086Z,101403.13
2023-01-01T21:16:55.918Z,101404.00
2023-01-01T21:19:26.664Z,101397.47
2023-01-01T21:21:55.824Z,101388.44
2023-01-01T21:24:28.572Z,101398.66
2023-01-01T21:27:00.731Z,101408.41
2023-01-01T21:29:28.052Z,101417.44
2023-01-01T21:32:06.950Z,101425.81
2023-01-01T21:34:39.770Z,101421.72
2023-01-01T21:37:13.643Z,101416.91
2023-01-01T21:39:40.407Z,101413.56
2023-01-01T21:42:24.186Z,101420.44
2023-01-01T21:44:56.862Z,101408.28
2023-01-01T21:47:24.958Z,101413.34
2023-01-01T21:49:55.302Z,101429.03
2023-01-01T21:52:23.494Z,101433.41
2023-01-01T21:54:50.226Z,101424.56
2023-01-01T21:57:24.544Z,101426.13
2023-01-01T21:59:51.809Z,101425.31
2023-01-01T22:02:35.991Z,101427.34
2023-01-01T22:05:26.652Z,101429.44
2023-01-01T22:07:57.924Z,101423.09
2023-01-01T22:10:51.708Z,101428.00
2023-01-01T22:13:19.811Z,101421.81
2023-01-01T22:15:47.267Z,101428.84
2023-01-01T22:18:28.456Z,101425.03
2023-01-01T22:20:56.592Z,101422.81
2023-01-01T22:23:27.485Z,101428.63
2023-01-01T22:25:54.293Z,101423.91
2023-01-01T22:28:25.796Z,101419.59
2023-01-01T22:30:55.786Z,101416.94
2023-01-01T22:33:28.132Z,101413.47
2023-01-01T22:35:56.302Z,101416.72
2023-01-01T22:38:28.397Z,101409.69
2023-01-01T22:40:55.204Z,101405.91
2023-01-01T22:43:34.753Z,101407.88
2023-01-01T22:46:15.238Z,101412.88
2023-01-01T22:48:42.059Z,101415.16
2023-01-01T22:51:14.124Z,101408.25
2023-01-01T22:53:40.867Z,101406.03
2023-01-01T22:56:07.919Z,101390.88
2023-01-01T22:58:34.606Z,101386.94
2023-01-01T23:01:01.461Z,101378.94
2023-01-01T23:03:28.417Z,101380.19
2023-01-01T23:05:55.280Z,101369.56
2023-01-01T23:08:22.099Z,101368.78
2023-01-01T23:10:48.866Z,101359.03
2023-01-01T23:13:34.843Z,101361.06
2023-01-01T23:16:01.845Z,101357.19
2023-01-01T23:18:36.637Z,101350.47
2023-01-01T23:21:06.812Z,101353.44
2023-01-01T23:23:33.699Z,101345.75
2023-01-01T23:26:01.317Z,101342.25
2023-01-01T23:28:28.753Z,101340.38
2023-01-01T23:30:55.736Z,101329.81
2023-01-01T23:33:22.539Z,101328.00
2023-01-01T23:35:49.745Z,101325.31
2023-01-01T23:38:16.742Z,101322.88
2023-01-01T23:40:43.540Z,101317.44
2023-01-01T23:43:10.437Z,101314.84
2023-01-01T23:45:37.327Z,101309.75
2023-01-01T23:48:04.881Z,101302.72
2023-01-01T23:50:32.228Z,101314.16
2023-01-01T23:52:58.967Z,101307.13
2023-01-01T23:55:25.713Z,101288.84
2023-01-01T23:57:52.380Z,101282.72
